Portada
METAR-TAF:

METAR-TAF

Aeroports :

Pointe-Noire, Congo

latitud: 04-49S, longitud: 011-54E, altitud: 17 m

Observació

L'informe es va fer fa 1 hora i 13 minuts, a les 17:00 UTC
Vent 6 kt del Sud-Oest
Temperatura 30°C
Humitat 75%
Pressió 1007 hPa
Visibilitat 10 km o més
Escasses núvols a una alçada de 2000 ft
Escasses núvols a una alçada de 3000 ft, Cumulonimbus.

METAR: FCPP 031700Z 23006KT 9999 FEW020 FEW030CB 30/25 Q1007 NOSIG

Hora: 19:13 (18:13 UTC)

Pronòstic

L'informe es va fer fa 1 hora i 13 minuts, a les 17:00 UTC
Pronòstic vàlid del 03 a les 18 UTC al 04 a les 18 UTC
Vent 6 kt del Sud-Oest
Visibilitat 10 km o més
Escasses núvols a una alçada de 2000 ft
Escasses núvols a una alçada de 3000 ft, Cumulonimbus.
tempesta
Evolucionant progressivament
entre 00 i 40 UTC
Escasses núvols a una alçada de 2000 ft

TAF: FCPP 031700Z 0318/0418 23006KT 9999 FEW020 FEW030CB POB30 0321/0401 TS BECMG 00403/0405 FEW020

Observacions i pronòstics meteorològics de més de 4000 aeroports (METAR i TAF).

Les estacions disponibles són els punts grocs i vermells al mapa.

Posi el ratolí al punt desitjat per veure el nom de l'estació.

Feu clic per veure les observacions i els pronòstics meteorològics.

Per canviar el mapa: feu clic els botons verds amb una creu de color negre per apropar; al botó verd amb un guió per allunyar la imatge; o en les fletxes verdes per a mapes adjacents.


METAR-TAF: